Time;durP1;ratioP1;P1;durP2;ratioP2;P2;SDS_P1;SDS_P2;PMS_P1;PMS_P2;Temp;Humidity;BMP_temperature;BMP_pressure;BME280_temperature;BME280_humidity;BME280_pressure;Samples;Min_cycle;Max_cycle;Signal;HPM_P1;HPM_P2
2024/04/04 00:00:45;;;;;;;12.10;2.20;;;;;;;;;;5054584;28;20369;-84
2024/04/04 00:03:11;;;;;;;;;;;;;;;;;;5073324;28;20028;-83
2024/04/04 00:05:37;;;;;;;11.25;2.03;;;;;;;;;;5054814;28;19910;-83
2024/04/04 00:08:04;;;;;;;16.55;3.63;;;;;;;;;;5054684;28;20024;-83
2024/04/04 00:10:30;;;;;;;9.80;2.22;;;;;;;;;;5072707;28;20039;-82
2024/04/04 00:12:57;;;;;;;10.35;2.47;;;;;;;;;;5072512;28;20036;-81
2024/04/04 00:15:23;;;;;;;10.90;2.38;;;;;;;;;;5054731;28;20078;-81
2024/04/04 00:17:49;;;;;;;13.07;2.90;;;;;;;;;;5054640;28;20029;-82
2024/04/04 00:20:16;;;;;;;10.93;2.08;;;;;;;;;;5054652;28;20054;-82
2024/04/04 00:22:43;;;;;;;11.43;2.58;;;;;;;;;;5072680;28;20074;-81
2024/04/04 00:25:09;;;;;;;10.90;1.85;;;;;;;;;;5054796;28;20099;-81
2024/04/04 00:27:35;;;;;;;13.68;2.03;;;;;;;;;;5054524;28;20064;-82
2024/04/04 00:30:01;;;;;;;9.95;1.83;;;;;;;;;;5053971;28;20094;-81
2024/04/04 00:32:28;;;;;;;8.25;1.55;;;;;;;;;;5054560;28;20497;-83
2024/04/04 00:34:54;;;;;;;15.45;2.40;;;;;;;;;;5054347;28;20020;-83
2024/04/04 00:37:20;;;;;;;11.50;2.53;;;;;;;;;;5054486;28;20024;-83
2024/04/04 00:39:46;;;;;;;10.27;2.38;;;;;;;;;;5054138;28;20472;-83
2024/04/04 00:42:13;;;;;;;13.45;2.53;;;;;;;;;;5054457;28;20025;-82
2024/04/04 00:44:39;;;;;;;11.35;2.33;;;;;;;;;;5053856;28;20468;-83
2024/04/04 00:47:05;;;;;;;9.55;2.13;;;;;;;;;;5054355;28;20472;-83
2024/04/04 00:49:31;;;;;;;10.27;2.53;;;;;;;;;;5054143;28;20476;-83
2024/04/04 00:51:57;;;;;;;9.57;2.25;;;;;;;;;;5054052;28;20380;-83
2024/04/04 00:54:26;;;;;;;11.60;2.20;;;;;;;;;;5072224;28;20040;-83
2024/04/04 00:56:53;;;;;;;9.32;1.45;;;;;;;;;;5053777;28;20468;-83
2024/04/04 00:59:19;;;;;;;11.20;2.17;;;;;;;;;;5054203;28;20063;-83
2024/04/04 01:01:45;;;;;;;10.40;2.50;;;;;;;;;;5053706;28;20029;-82
2024/04/04 01:04:11;;;;;;;13.40;2.08;;;;;;;;;;5053870;28;20025;-83
2024/04/04 01:06:39;;;;;;;11.15;2.58;;;;;;;;;;5053845;28;20035;-82
2024/04/04 01:09:05;;;;;;;14.23;2.40;;;;;;;;;;5053598;28;20021;-82
2024/04/04 01:11:31;;;;;;;9.65;1.88;;;;;;;;;;5053837;28;20130;-84
2024/04/04 01:13:57;;;;;;;11.23;1.90;;;;;;;;;;5054047;28;20353;-84
2024/04/04 01:16:23;;;;;;;13.85;2.28;;;;;;;;;;5054103;28;20116;-84
2024/04/04 01:18:49;;;;;;;9.90;1.67;;;;;;;;;;5053948;28;20059;-82
2024/04/04 01:21:15;;;;;;;9.88;1.83;;;;;;;;;;5054045;28;20433;-83
2024/04/04 01:23:42;;;;;;;10.45;2.03;;;;;;;;;;5053866;28;20024;-81
2024/04/04 01:26:08;;;;;;;9.82;2.08;;;;;;;;;;5054166;28;20035;-81
2024/04/04 01:28:34;;;;;;;7.95;2.63;;;;;;;;;;5053803;28;20021;-82
2024/04/04 01:31:01;;;;;;;12.82;2.10;;;;;;;;;;5071234;28;20124;-81
2024/04/04 01:33:27;;;;;;;13.88;2.20;;;;;;;;;;5053925;28;20373;-81
2024/04/04 01:35:53;;;;;;;7.78;2.40;;;;;;;;;;5072305;28;20590;-82
2024/04/04 01:38:19;;;;;;;6.30;1.83;;;;;;;;;;5053896;28;20024;-82
2024/04/04 01:40:45;;;;;;;14.85;2.63;;;;;;;;;;5072651;28;20024;-82
2024/04/04 01:43:14;;;;;;;14.88;2.58;;;;;;;;;;5055222;28;20078;-83
2024/04/04 01:45:40;;;;;;;11.93;2.33;;;;;;;;;;5073404;28;20032;-82
2024/04/04 01:48:06;;;;;;;18.95;3.45;;;;;;;;;;5054549;28;20033;-82
2024/04/04 01:50:32;;;;;;;22.50;3.63;;;;;;;;;;5053392;28;20067;-82
2024/04/04 01:52:58;;;;;;;14.02;2.40;;;;;;;;;;5053090;28;20066;-82
2024/04/04 01:55:31;;;;;;;18.05;3.15;;;;;;;;;;5053475;28;20021;-82
2024/04/04 01:57:58;;;;;;;11.75;2.47;;;;;;;;;;5056737;28;20051;-83
2024/04/04 02:00:26;;;;;;;12.57;2.53;;;;;;;;;;5057564;28;20389;-83
2024/04/04 02:02:52;;;;;;;13.15;3.30;;;;;;;;;;5057088;28;20464;-83
2024/04/04 02:05:18;;;;;;;13.80;2.58;;;;;;;;;;5057224;28;20070;-83
2024/04/04 02:07:44;;;;;;;15.75;3.05;;;;;;;;;;5056977;28;20380;-83
2024/04/04 02:10:10;;;;;;;9.85;2.55;;;;;;;;;;5057762;28;20039;-83
2024/04/04 02:12:36;;;;;;;15.10;2.58;;;;;;;;;;5057288;28;20147;-83
2024/04/04 02:15:03;;;;;;;11.65;2.53;;;;;;;;;;5057134;28;20056;-83
2024/04/04 02:17:29;;;;;;;10.52;3.33;;;;;;;;;;5057092;28;20035;-83
2024/04/04 02:19:55;;;;;;;11.25;2.33;;;;;;;;;;5056987;28;20052;-83
2024/04/04 02:22:21;;;;;;;12.88;3.45;;;;;;;;;;5057045;28;20035;-81
2024/04/04 02:24:47;;;;;;;12.55;2.75;;;;;;;;;;5056568;28;20470;-82
2024/04/04 02:27:13;;;;;;;13.43;2.40;;;;;;;;;;5056548;28;20117;-81
2024/04/04 02:29:43;;;;;;;16.27;2.55;;;;;;;;;;5054854;28;20488;-81
2024/04/04 02:32:10;;;;;;;9.93;2.30;;;;;;;;;;5056607;28;20031;-81
2024/04/04 02:34:36;;;;;;;14.25;2.50;;;;;;;;;;5056357;28;20081;-81
2024/04/04 02:37:02;;;;;;;12.95;2.85;;;;;;;;;;5056640;28;20036;-84
2024/04/04 02:39:28;;;;;;;14.02;3.50;;;;;;;;;;5056854;28;20020;-82
2024/04/04 02:41:54;;;;;;;18.40;3.63;;;;;;;;;;5056334;28;20031;-83
2024/04/04 02:44:20;;;;;;;13.95;2.35;;;;;;;;;;5056563;28;20468;-83
2024/04/04 02:46:46;;;;;;;9.73;2.40;;;;;;;;;;5056544;28;20032;-82
2024/04/04 02:49:12;;;;;;;13.90;2.00;;;;;;;;;;5056524;28;20078;-82
2024/04/04 02:51:38;;;;;;;13.35;2.78;;;;;;;;;;5056268;28;20495;-82
2024/04/04 02:54:04;;;;;;;17.67;2.72;;;;;;;;;;5074313;28;20082;-82
2024/04/04 02:56:31;;;;;;;18.85;2.55;;;;;;;;;;5056313;28;20021;-82
2024/04/04 02:58:57;;;;;;;13.77;3.45;;;;;;;;;;5074154;28;20483;-82
2024/04/04 03:01:23;;;;;;;13.32;2.47;;;;;;;;;;5056373;28;20032;-82
2024/04/04 03:03:49;;;;;;;15.70;2.80;;;;;;;;;;5056164;28;20166;-83
2024/04/04 03:06:18;;;;;;;7.25;1.80;;;;;;;;;;5056047;28;20031;-83
2024/04/04 03:08:45;;;;;;;14.38;2.75;;;;;;;;;;5073347;28;20519;-83
2024/04/04 03:11:11;;;;;;;8.15;2.63;;;;;;;;;;5055809;28;20021;-83
2024/04/04 03:13:38;;;;;;;9.57;2.35;;;;;;;;;;5056143;28;20119;-82
2024/04/04 03:16:04;;;;;;;9.88;2.40;;;;;;;;;;5055919;28;20048;-83
2024/04/04 03:18:30;;;;;;;14.70;2.05;;;;;;;;;;5056116;28;20052;-82
2024/04/04 03:20:56;;;;;;;10.07;2.25;;;;;;;;;;5055869;28;20033;-82
2024/04/04 03:23:22;;;;;;;10.82;2.08;;;;;;;;;;5055965;28;20519;-83
2024/04/04 03:25:48;;;;;;;15.73;2.70;;;;;;;;;;5074464;28;20517;-83
2024/04/04 03:28:14;;;;;;;13.80;2.70;;;;;;;;;;5055969;28;20028;-84
2024/04/04 03:30:40;;;;;;;12.73;2.92;;;;;;;;;;5055820;28;20051;-83
2024/04/04 03:33:06;;;;;;;12.70;2.15;;;;;;;;;;5055858;28;20067;-83
2024/04/04 03:35:32;;;;;;;7.70;2.10;;;;;;;;;;5055778;28;20029;-81
2024/04/04 03:38:02;;;;;;;11.70;2.90;;;;;;;;;;5055617;28;20031;-83
2024/04/04 03:40:28;;;;;;;13.93;2.17;;;;;;;;;;5073938;28;20033;-83
2024/04/04 03:42:54;;;;;;;7.80;2.20;;;;;;;;;;5055621;28;20032;-82
2024/04/04 03:45:20;;;;;;;12.95;2.40;;;;;;;;;;5055756;28;20174;-82
2024/04/04 03:47:46;;;;;;;9.00;2.47;;;;;;;;;;5055700;28;20032;-84
2024/04/04 03:50:13;;;;;;;9.65;2.40;;;;;;;;;;5055592;28;20017;-83
2024/04/04 03:52:39;;;;;;;11.30;2.90;;;;;;;;;;5056370;28;20021;-84
2024/04/04 03:55:05;;;;;;;10.80;2.67;;;;;;;;;;5056569;28;20025;-83
2024/04/04 03:57:31;;;;;;;10.05;2.45;;;;;;;;;;5057274;28;20111;-83
2024/04/04 03:59:57;;;;;;;10.50;2.85;;;;;;;;;;5055436;28;20029;-82
2024/04/04 04:02:23;;;;;;;8.23;3.33;;;;;;;;;;5055126;28;20525;-82
2024/04/04 04:04:52;;;;;;;7.70;2.53;;;;;;;;;;5055180;28;20067;-83
2024/04/04 04:07:18;;;;;;;13.80;3.85;;;;;;;;;;5054943;28;20476;-83
2024/04/04 04:09:44;;;;;;;13.45;3.70;;;;;;;;;;5072903;28;20025;-82
2024/04/04 04:12:10;;;;;;;11.63;3.65;;;;;;;;;;5054848;28;20028;-82
2024/04/04 04:14:36;;;;;;;13.63;4.10;;;;;;;;;;5054806;28;20106;-83
2024/04/04 04:17:03;;;;;;;6.82;3.03;;;;;;;;;;5054787;28;20024;-82
2024/04/04 04:19:29;;;;;;;7.82;3.97;;;;;;;;;;5054801;28;20021;-83
2024/04/04 04:21:55;;;;;;;12.32;4.28;;;;;;;;;;5054566;28;20435;-83
2024/04/04 04:24:21;;;;;;;10.25;4.28;;;;;;;;;;5054881;28;20028;-83
2024/04/04 04:26:47;;;;;;;13.18;4.78;;;;;;;;;;5055020;28;20032;-82
2024/04/04 04:29:17;;;;;;;10.05;4.78;;;;;;;;;;5054483;28;20376;-83
2024/04/04 04:31:43;;;;;;;;;;;;;;;;;;5055934;28;20123;-83
2024/04/04 04:34:09;;;;;;;9.45;4.40;;;;;;;;;;5054708;28;20000;-83
2024/04/04 04:36:46;;;;;;;12.85;5.05;;;;;;;;;;5054970;28;20035;-83
2024/04/04 04:39:12;;;;;;;14.15;5.32;;;;;;;;;;5054932;28;20024;-82
2024/04/04 04:41:38;;;;;;;14.88;5.20;;;;;;;;;;5054881;28;20372;-83
2024/04/04 04:44:04;;;;;;;15.63;6.03;;;;;;;;;;5054738;28;20025;-82
2024/04/04 04:46:33;;;;;;;11.45;6.57;;;;;;;;;;5054500;28;20021;-83
2024/04/04 04:48:59;;;;;;;10.68;4.07;;;;;;;;;;5054203;28;20028;-83
2024/04/04 04:51:25;;;;;;;17.80;7.05;;;;;;;;;;5054194;28;20521;-82
2024/04/04 04:53:51;;;;;;;10.93;6.18;;;;;;;;;;5054768;28;20277;-83
2024/04/04 04:56:17;;;;;;;11.40;5.97;;;;;;;;;;5053255;28;20036;-83
2024/04/04 04:58:43;;;;;;;14.63;6.43;;;;;;;;;;5054599;28;20138;-83
2024/04/04 05:01:10;;;;;;;12.65;6.30;;;;;;;;;;5054030;28;20499;-83
2024/04/04 05:03:37;;;;;;;12.95;6.35;;;;;;;;;;5054380;28;20055;-83
2024/04/04 05:06:04;;;;;;;11.93;6.82;;;;;;;;;;5054291;28;20369;-83
2024/04/04 05:08:30;;;;;;;13.95;7.35;;;;;;;;;;5072445;28;20025;-84
2024/04/04 05:10:56;;;;;;;10.88;6.95;;;;;;;;;;5054330;28;20150;-83
2024/04/04 05:13:23;;;;;;;10.35;6.88;;;;;;;;;;5054133;28;20060;-84
2024/04/04 05:15:55;;;;;;;9.70;5.20;;;;;;;;;;5054326;28;20024;-84
2024/04/04 05:18:24;;;;;;;11.60;4.80;;;;;;;;;;5054407;28;20460;-84
2024/04/04 05:20:57;;;;;;;10.60;5.95;;;;;;;;;;5072677;28;20475;-84
2024/04/04 05:23:23;;;;;;;19.33;8.60;;;;;;;;;;5054267;28;20126;-84
2024/04/04 05:25:49;;;;;;;14.02;6.88;;;;;;;;;;5054237;28;20082;-84
2024/04/04 05:28:15;;;;;;;12.07;4.95;;;;;;;;;;5057410;28;20032;-84
2024/04/04 05:30:41;;;;;;;8.98;3.13;;;;;;;;;;5053909;28;20060;-84
2024/04/04 05:33:07;;;;;;;17.25;6.72;;;;;;;;;;5060444;28;20037;-84
2024/04/04 05:35:34;;;;;;;13.48;5.53;;;;;;;;;;5058276;28;20051;-84
2024/04/04 05:38:00;;;;;;;17.80;5.70;;;;;;;;;;5057520;28;20024;-84
2024/04/04 05:40:26;;;;;;;16.50;6.22;;;;;;;;;;5057757;28;20393;-84
2024/04/04 05:42:52;;;;;;;16.98;6.63;;;;;;;;;;5058411;28;20032;-84
2024/04/04 05:45:18;;;;;;;14.55;6.70;;;;;;;;;;5057952;28;20035;-84
2024/04/04 05:47:44;;;;;;;15.85;7.22;;;;;;;;;;5057982;28;20120;-82
2024/04/04 05:50:10;;;;;;;11.02;4.85;;;;;;;;;;5058092;28;20044;-83
2024/04/04 05:52:39;;;;;;;12.88;6.45;;;;;;;;;;5057939;28;20042;-82
2024/04/04 05:55:05;;;;;;;16.35;7.47;;;;;;;;;;5058007;28;20024;-84
2024/04/04 05:57:31;;;;;;;15.32;7.20;;;;;;;;;;5061316;28;20479;-82
2024/04/04 05:59:57;;;;;;;19.35;7.82;;;;;;;;;;5081617;28;20021;-83
2024/04/04 06:02:23;;;;;;;18.55;7.03;;;;;;;;;;5061306;28;20139;-77
2024/04/04 06:04:50;;;;;;;22.30;8.00;;;;;;;;;;5057370;28;20467;-78
2024/04/04 06:07:16;;;;;;;10.05;6.25;;;;;;;;;;5075187;28;20027;-78
2024/04/04 06:09:42;;;;;;;15.82;6.05;;;;;;;;;;5057125;28;20464;-77
2024/04/04 06:12:08;;;;;;;14.05;6.20;;;;;;;;;;5056487;28;20035;-78
2024/04/04 06:14:34;;;;;;;16.38;6.38;;;;;;;;;;5057039;28;20093;-78
2024/04/04 06:17:01;;;;;;;11.68;5.47;;;;;;;;;;5056844;28;20049;-79
2024/04/04 06:19:27;;;;;;;11.52;4.97;;;;;;;;;;5056644;28;20024;-78
2024/04/04 06:21:55;;;;;;;11.77;5.50;;;;;;;;;;5057106;28;20032;-77
2024/04/04 06:24:21;;;;;;;17.60;4.35;;;;;;;;;;5056477;28;20024;-77
2024/04/04 06:26:47;;;;;;;13.98;5.07;;;;;;;;;;5056694;28;20037;-77
2024/04/04 06:29:13;;;;;;;12.43;4.45;;;;;;;;;;5056694;28;20021;-78
2024/04/04 06:31:39;;;;;;;15.45;4.78;;;;;;;;;;5053157;28;20404;-78
2024/04/04 06:34:05;;;;;;;11.73;3.75;;;;;;;;;;5053128;28;20028;-77
2024/04/04 06:36:31;;;;;;;11.48;4.28;;;;;;;;;;5054758;28;20076;-77
2024/04/04 06:39:02;;;;;;;18.13;5.25;;;;;;;;;;5054323;28;20570;-78
2024/04/04 06:41:30;;;;;;;15.48;4.45;;;;;;;;;;5053348;28;20032;-77
2024/04/04 06:43:56;;;;;;;12.57;3.90;;;;;;;;;;5051868;28;20025;-78
2024/04/04 06:46:22;;;;;;;11.90;3.65;;;;;;;;;;5052802;28;20028;-78
2024/04/04 06:48:49;;;;;;;9.65;3.40;;;;;;;;;;5053001;28;20031;-79
2024/04/04 06:51:15;;;;;;;12.68;3.55;;;;;;;;;;5052663;28;20028;-78
2024/04/04 06:53:41;;;;;;;11.02;3.72;;;;;;;;;;5052849;28;20033;-78
2024/04/04 06:56:07;;;;;;;13.60;3.78;;;;;;;;;;5052739;28;20187;-78
2024/04/04 06:58:33;;;;;;;14.63;3.47;;;;;;;;;;5053871;28;20492;-79
2024/04/04 07:00:59;;;;;;;9.13;3.13;;;;;;;;;;5053012;28;20087;-78
2024/04/04 07:03:27;;;;;;;11.82;3.25;;;;;;;;;;5055094;28;20029;-79
2024/04/04 07:05:59;;;;;;;12.07;3.65;;;;;;;;;;5053606;28;20106;-79
2024/04/04 07:08:25;;;;;;;10.82;4.05;;;;;;;;;;5052564;28;20029;-78
2024/04/04 07:10:58;;;;;;;10.02;4.35;;;;;;;;;;5052638;28;20087;-79
2024/04/04 07:13:24;;;;;;;10.73;3.33;;;;;;;;;;5053711;28;20032;-78
2024/04/04 07:16:00;;;;;;;13.88;4.55;;;;;;;;;;5052493;28;20036;-78
2024/04/04 07:18:26;;;;;;;13.32;3.17;;;;;;;;;;5052299;28;20029;-78
2024/04/04 07:20:53;;;;;;;13.07;3.85;;;;;;;;;;5052334;28;20079;-78
2024/04/04 07:23:19;;;;;;;12.40;3.83;;;;;;;;;;5052155;28;20036;-79
2024/04/04 07:25:50;;;;;;;10.80;2.78;;;;;;;;;;5053433;28;20037;-79
2024/04/04 07:28:17;;;;;;;12.60;3.55;;;;;;;;;;5052024;28;20075;-78
2024/04/04 07:30:43;;;;;;;9.38;3.15;;;;;;;;;;5064220;28;20056;-78
2024/04/04 07:33:09;;;;;;;10.23;3.80;;;;;;;;;;5073355;28;20047;-78
2024/04/04 07:35:35;;;;;;;12.85;3.95;;;;;;;;;;5055496;28;20035;-77
2024/04/04 07:38:02;;;;;;;8.43;2.42;;;;;;;;;;5073314;28;20024;-78
2024/04/04 07:40:28;;;;;;;13.20;3.78;;;;;;;;;;5073136;28;20414;-78
2024/04/04 07:42:55;;;;;;;12.80;3.30;;;;;;;;;;5055199;28;20078;-78
2024/04/04 07:45:21;;;;;;;11.05;4.18;;;;;;;;;;5072912;28;20025;-78
2024/04/04 07:47:47;;;;;;;10.30;3.80;;;;;;;;;;5073398;28;20082;-78
2024/04/04 07:50:14;;;;;;;11.25;3.45;;;;;;;;;;5054583;28;20044;-78
2024/04/04 07:52:41;;;;;;;12.68;4.13;;;;;;;;;;5072754;28;20033;-78
2024/04/04 07:55:07;;;;;;;12.63;4.20;;;;;;;;;;5054335;28;20031;-82
2024/04/04 07:57:33;;;;;;;7.03;2.90;;;;;;;;;;5055009;28;20024;-81
2024/04/04 07:59:59;;;;;;;13.07;3.30;;;;;;;;;;5054728;28;20031;-81
2024/04/04 08:02:26;;;;;;;11.63;3.67;;;;;;;;;;5054630;28;20083;-81
2024/04/04 08:04:52;;;;;;;9.85;3.42;;;;;;;;;;5054610;28;20024;-80
2024/04/04 08:07:19;;;;;;;10.93;3.25;;;;;;;;;;5060040;28;20032;-80
2024/04/04 08:09:45;;;;;;;11.07;4.30;;;;;;;;;;5065441;28;20039;-80
2024/04/04 08:12:11;;;;;;;11.15;2.90;;;;;;;;;;5063630;28;20484;-80
2024/04/04 08:14:37;;;;;;;9.07;3.10;;;;;;;;;;5077762;28;20036;-79
2024/04/04 08:17:03;;;;;;;12.27;3.35;;;;;;;;;;5056206;28;20116;-80
2024/04/04 08:19:29;;;;;;;10.07;3.53;;;;;;;;;;5054844;28;20016;-80
2024/04/04 08:21:55;;;;;;;10.57;3.83;;;;;;;;;;5072554;28;20032;-80
2024/04/04 08:24:21;;;;;;;9.55;3.88;;;;;;;;;;5064103;28;20031;-80
2024/04/04 08:26:47;;;;;;;9.20;2.53;;;;;;;;;;5074524;28;20020;-80
2024/04/04 08:29:14;;;;;;;10.25;2.88;;;;;;;;;;5092655;28;20016;-80
2024/04/04 08:31:40;;;;;;;8.32;3.03;;;;;;;;;;5061248;28;20396;-80
2024/04/04 08:34:08;;;;;;;8.32;3.17;;;;;;;;;;5061850;28;20079;-79
2024/04/04 08:36:34;;;;;;;8.75;2.80;;;;;;;;;;5073884;28;20020;-79
2024/04/04 08:39:01;;;;;;;7.95;2.55;;;;;;;;;;5073966;28;20024;-80
2024/04/04 08:41:27;;;;;;;8.40;2.60;;;;;;;;;;5092266;28;20020;-80
2024/04/04 08:43:55;;;;;;;7.97;2.45;;;;;;;;;;5073965;28;20081;-80
2024/04/04 08:46:21;;;;;;;9.35;2.40;;;;;;;;;;5073704;28;20058;-80
2024/04/04 08:48:49;;;;;;;9.60;2.67;;;;;;;;;;5073855;28;20039;-80
2024/04/04 08:51:17;;;;;;;9.57;2.20;;;;;;;;;;5087021;28;20024;-80
2024/04/04 08:53:43;;;;;;;7.93;2.63;;;;;;;;;;5056634;28;20488;-80
2024/04/04 08:56:09;;;;;;;8.75;2.42;;;;;;;;;;5062728;28;20028;-80
2024/04/04 08:58:36;;;;;;;10.55;3.20;;;;;;;;;;5072731;28;20029;-79
2024/04/04 09:01:03;;;;;;;7.07;2.40;;;;;;;;;;5060753;28;20017;-79
2024/04/04 09:03:29;;;;;;;8.15;2.15;;;;;;;;;;5053915;28;20024;-80
2024/04/04 09:05:56;;;;;;;9.30;3.22;;;;;;;;;;5053457;28;20404;-79
2024/04/04 09:08:22;;;;;;;8.45;2.28;;;;;;;;;;5054092;28;20028;-78
2024/04/04 09:10:48;;;;;;;10.88;3.13;;;;;;;;;;5073749;28;20024;-80
2024/04/04 09:13:15;;;;;;;9.88;4.03;;;;;;;;;;5091804;28;20115;-79
2024/04/04 09:15:41;;;;;;;12.82;4.18;;;;;;;;;;5073935;28;20468;-81
2024/04/04 09:18:08;;;;;;;9.90;4.47;;;;;;;;;;5073645;28;20479;-85
2024/04/04 09:20:36;;;;;;;6.00;3.00;;;;;;;;;;5070447;28;20031;-85
2024/04/04 09:23:03;;;;;;;7.70;3.00;;;;;;;;;;5056593;28;20369;-86
2024/04/04 09:25:30;;;;;;;10.93;3.58;;;;;;;;;;5068265;28;20029;-85
2024/04/04 09:27:57;;;;;;;11.80;3.88;;;;;;;;;;5073180;28;20085;-86
2024/04/04 09:30:27;;;;;;;12.00;3.60;;;;;;;;;;5072385;28;20048;-86
2024/04/04 09:32:53;;;;;;;;;;;;;;;;;;5071586;28;20028;-81
2024/04/04 09:35:23;;;;;;;11.15;4.40;;;;;;;;;;5071651;28;19912;-84
2024/04/04 09:37:49;;;;;;;9.07;3.63;;;;;;;;;;5053978;28;20020;-83
2024/04/04 09:40:16;;;;;;;9.68;4.35;;;;;;;;;;5071367;28;20055;-84
2024/04/04 09:42:44;;;;;;;6.90;3.25;;;;;;;;;;5053638;28;20048;-84
2024/04/04 09:45:10;;;;;;;7.55;2.75;;;;;;;;;;5053449;28;20503;-83
2024/04/04 09:47:46;;;;;;;7.22;2.83;;;;;;;;;;5053593;28;20021;-84
2024/04/04 09:50:14;;;;;;;8.38;2.15;;;;;;;;;;5059388;28;20040;-83
2024/04/04 09:52:40;;;;;;;8.82;3.15;;;;;;;;;;5072257;28;20035;-84
2024/04/04 09:55:07;;;;;;;5.47;1.83;;;;;;;;;;5081223;28;20085;-83
2024/04/04 09:57:35;;;;;;;9.27;2.88;;;;;;;;;;5071582;28;20024;-83
2024/04/04 10:00:14;;;;;;;5.97;3.00;;;;;;;;;;5074636;28;20012;-83
2024/04/04 10:02:59;;;;;;;6.53;2.28;;;;;;;;;;5053694;28;20119;-84
2024/04/04 10:05:31;;;;;;;5.78;2.35;;;;;;;;;;5053493;28;20017;-84
2024/04/04 10:08:06;;;;;;;7.63;3.17;;;;;;;;;;5054005;28;20032;-84
2024/04/04 10:10:32;;;;;;;10.13;3.97;;;;;;;;;;5057642;28;20024;-82
2024/04/04 10:13:04;;;;;;;9.20;3.38;;;;;;;;;;5064036;28;20032;-82
2024/04/04 10:15:40;;;;;;;9.52;3.00;;;;;;;;;;5073612;28;20074;-82
2024/04/04 10:18:10;;;;;;;8.32;2.30;;;;;;;;;;5093928;28;20028;-83
2024/04/04 10:20:37;;;;;;;5.97;2.30;;;;;;;;;;5078265;28;20034;-83
2024/04/04 10:23:07;;;;;;;6.65;2.22;;;;;;;;;;5077738;28;20024;-82
2024/04/04 10:25:33;;;;;;;7.05;2.03;;;;;;;;;;5078569;28;20028;-84
2024/04/04 10:28:03;;;;;;;5.53;2.22;;;;;;;;;;5097810;28;20024;-84
2024/04/04 10:30:34;;;;;;;6.45;2.25;;;;;;;;;;5076574;28;20055;-83
2024/04/04 10:33:05;;;;;;;5.05;2.08;;;;;;;;;;5076647;28;20471;-83
2024/04/04 10:35:31;;;;;;;8.50;2.03;;;;;;;;;;5094667;28;20024;-83
2024/04/04 10:38:05;;;;;;;7.57;1.75;;;;;;;;;;5094642;28;20078;-82
2024/04/04 10:40:32;;;;;;;6.00;1.80;;;;;;;;;;5076403;28;20320;-81
2024/04/04 10:42:58;;;;;;;5.55;1.75;;;;;;;;;;5076683;28;20032;-81
2024/04/04 10:45:25;;;;;;;6.35;1.55;;;;;;;;;;5076522;28;20020;-82
2024/04/04 10:47:55;;;;;;;7.97;2.08;;;;;;;;;;5076528;28;20020;-81
2024/04/04 10:50:21;;;;;;;;;;;;;;;;;;5076555;28;20024;-81
2024/04/04 10:52:47;;;;;;;6.13;1.85;;;;;;;;;;5094445;28;20034;-80
2024/04/04 10:55:13;;;;;;;5.63;1.52;;;;;;;;;;5075929;28;20026;-81
2024/04/04 10:57:39;;;;;;;6.18;2.13;;;;;;;;;;5074882;28;20055;-80
2024/04/04 11:00:14;;;;;;;7.93;1.73;;;;;;;;;;5056480;28;20029;-80
2024/04/04 11:02:49;;;;;;;6.80;1.60;;;;;;;;;;5073848;28;20029;-81
2024/04/04 11:05:19;;;;;;;5.28;1.50;;;;;;;;;;5055944;28;20051;-80
2024/04/04 11:07:46;;;;;;;6.18;1.27;;;;;;;;;;5056104;28;20036;-80
2024/04/04 11:10:12;;;;;;;7.80;1.58;;;;;;;;;;5055957;28;20419;-79
2024/04/04 11:12:38;;;;;;;3.85;1.30;;;;;;;;;;5055740;28;20055;-80
2024/04/04 11:15:08;;;;;;;2.88;0.85;;;;;;;;;;5055953;28;20020;-80
2024/04/04 11:17:37;;;;;;;6.82;1.58;;;;;;;;;;5055751;28;20988;-80
2024/04/04 11:20:08;;;;;;;7.22;1.33;;;;;;;;;;5058397;28;20262;-81
2024/04/04 11:22:37;;;;;;;7.05;1.20;;;;;;;;;;5073594;28;20059;-81
2024/04/04 11:25:05;;;;;;;8.60;1.30;;;;;;;;;;5074126;28;20082;-81
2024/04/04 11:27:31;;;;;;;6.45;0.95;;;;;;;;;;5055616;28;20029;-81
2024/04/04 11:29:58;;;;;;;5.80;1.17;;;;;;;;;;5054690;28;20047;-80
2024/04/04 11:32:24;;;;;;;6.25;1.50;;;;;;;;;;5055402;28;20084;-81
2024/04/04 11:34:50;;;;;;;14.93;1.80;;;;;;;;;;5073591;28;20017;-81
2024/04/04 11:37:19;;;;;;;8.52;1.35;;;;;;;;;;5055378;28;20032;-81
2024/04/04 11:39:45;;;;;;;7.95;1.88;;;;;;;;;;5073594;28;20472;-81
2024/04/04 11:42:11;;;;;;;11.85;1.98;;;;;;;;;;5055457;28;20468;-82
2024/04/04 11:44:37;;;;;;;9.23;1.95;;;;;;;;;;5073174;28;20020;-81
2024/04/04 11:47:03;;;;;;;8.55;1.73;;;;;;;;;;5055547;28;20024;-80
2024/04/04 11:49:30;;;;;;;8.75;2.22;;;;;;;;;;5073095;28;20056;-81
2024/04/04 11:51:56;;;;;;;8.50;1.20;;;;;;;;;;5072982;28;20032;-81
2024/04/04 11:54:23;;;;;;;10.25;1.38;;;;;;;;;;5055087;28;20033;-81
2024/04/04 11:56:49;;;;;;;6.45;1.55;;;;;;;;;;5055103;28;20545;-82
2024/04/04 11:59:15;;;;;;;10.77;2.15;;;;;;;;;;5055072;28;20028;-82
2024/04/04 12:01:41;;;;;;;9.57;1.75;;;;;;;;;;5054889;28;20040;-83
2024/04/04 12:04:10;;;;;;;8.52;1.80;;;;;;;;;;5055345;28;20021;-82
2024/04/04 12:06:37;;;;;;;10.07;1.55;;;;;;;;;;5054949;28;20121;-81
2024/04/04 12:09:09;;;;;;;10.27;1.67;;;;;;;;;;5055249;28;20086;-82
2024/04/04 12:11:35;;;;;;;10.82;1.90;;;;;;;;;;5054678;28;20086;-82
2024/04/04 12:14:02;;;;;;;12.90;2.38;;;;;;;;;;5055173;28;20532;-82
2024/04/04 12:16:31;;;;;;;16.52;2.40;;;;;;;;;;5055190;28;20036;-82
2024/04/04 12:21:42;;;;;;;9.02;1.63;;;;;;;;;;5072722;28;20059;-82
2024/04/04 12:24:08;;;;;;;9.80;1.58;;;;;;;;;;5055082;28;20033;-83
2024/04/04 12:26:35;;;;;;;11.98;1.95;;;;;;;;;;5054881;28;20073;-83
2024/04/04 12:29:01;;;;;;;12.55;2.17;;;;;;;;;;5055148;28;20024;-82
2024/04/04 12:31:28;;;;;;;12.52;2.33;;;;;;;;;;5051480;28;20044;-80
2024/04/04 12:33:54;;;;;;;13.68;2.10;;;;;;;;;;5053973;28;20021;-82
2024/04/04 12:36:20;;;;;;;12.18;2.33;;;;;;;;;;5052058;28;20465;-81
2024/04/04 12:38:46;;;;;;;11.77;2.75;;;;;;;;;;5051439;28;20039;-81
2024/04/04 12:41:12;;;;;;;14.05;3.20;;;;;;;;;;5052516;28;20025;-81
2024/04/04 12:43:38;;;;;;;15.55;3.00;;;;;;;;;;5050909;28;20040;-81
2024/04/04 12:46:05;;;;;;;13.40;3.40;;;;;;;;;;5051163;28;20033;-82
2024/04/04 12:48:32;;;;;;;12.95;2.55;;;;;;;;;;5051139;28;20024;-82
2024/04/04 12:50:58;;;;;;;20.02;3.30;;;;;;;;;;5051314;28;20021;-81
2024/04/04 12:53:25;;;;;;;19.58;4.13;;;;;;;;;;5052031;28;20381;-81
2024/04/04 12:55:51;;;;;;;16.42;4.03;;;;;;;;;;5052281;28;20350;-81
2024/04/04 12:58:17;;;;;;;16.48;3.20;;;;;;;;;;5052345;28;20099;-81
2024/04/04 13:00:43;;;;;;;20.42;3.47;;;;;;;;;;5050587;28;20125;-82
2024/04/04 13:03:10;;;;;;;21.35;4.07;;;;;;;;;;5050629;28;20033;-82
2024/04/04 13:05:36;;;;;;;17.80;4.13;;;;;;;;;;5051796;28;20025;-82
2024/04/04 13:08:03;;;;;;;16.92;3.13;;;;;;;;;;5050700;28;20029;-82
2024/04/04 13:10:29;;;;;;;22.38;4.25;;;;;;;;;;5050414;28;20021;-82
2024/04/04 13:12:55;;;;;;;19.88;4.72;;;;;;;;;;5050752;28;20025;-82
2024/04/04 13:15:21;;;;;;;15.25;3.95;;;;;;;;;;5050284;28;20051;-83
2024/04/04 13:17:47;;;;;;;20.38;4.15;;;;;;;;;;5050889;28;20032;-83
2024/04/04 13:20:13;;;;;;;19.80;4.93;;;;;;;;;;5050800;28;20071;-82
2024/04/04 13:22:40;;;;;;;18.30;5.03;;;;;;;;;;5050821;28;20029;-82
2024/04/04 13:25:06;;;;;;;17.08;4.30;;;;;;;;;;5052072;28;20453;-81
2024/04/04 13:27:34;;;;;;;16.63;3.53;;;;;;;;;;5050310;28;20448;-81
2024/04/04 13:30:00;;;;;;;16.85;3.72;;;;;;;;;;5050486;28;20060;-81
2024/04/04 13:32:26;;;;;;;20.67;4.30;;;;;;;;;;5050227;28;20078;-83
2024/04/04 13:34:53;;;;;;;16.25;3.60;;;;;;;;;;5050514;28;20564;-83
2024/04/04 13:37:19;;;;;;;17.60;3.40;;;;;;;;;;5050689;28;20025;-82
2024/04/04 13:39:50;;;;;;;17.42;4.22;;;;;;;;;;5050317;28;20120;-82
2024/04/04 13:42:18;;;;;;;14.23;4.07;;;;;;;;;;5050531;28;20446;-81
2024/04/04 13:44:44;;;;;;;21.33;3.60;;;;;;;;;;5050138;28;20059;-82
2024/04/04 13:47:10;;;;;;;18.83;3.90;;;;;;;;;;5050906;28;20071;-83
2024/04/04 13:49:36;;;;;;;18.52;4.47;;;;;;;;;;5056644;28;20076;-82
2024/04/04 13:52:02;;;;;;;23.63;4.47;;;;;;;;;;5058303;28;20480;-82
2024/04/04 13:54:28;;;;;;;23.50;4.43;;;;;;;;;;5054163;28;20025;-82
2024/04/04 13:56:54;;;;;;;21.90;4.07;;;;;;;;;;5053992;28;20021;-82
2024/04/04 13:59:24;;;;;;;25.13;4.97;;;;;;;;;;5053862;28;20071;-82
2024/04/04 14:01:50;;;;;;;27.20;5.37;;;;;;;;;;5054207;28;20059;-82
2024/04/04 14:04:16;;;;;;;23.48;5.15;;;;;;;;;;5059261;28;20045;-82
2024/04/04 14:06:42;;;;;;;18.90;3.70;;;;;;;;;;5075123;28;20024;-83
2024/04/04 14:09:09;;;;;;;21.58;5.13;;;;;;;;;;5075488;28;20025;-83
2024/04/04 14:11:35;;;;;;;23.77;4.72;;;;;;;;;;5073283;28;20039;-82
2024/04/04 14:14:05;;;;;;;20.05;4.50;;;;;;;;;;5073603;28;20029;-82
2024/04/04 14:16:32;;;;;;;21.07;5.00;;;;;;;;;;5073465;28;20025;-83
2024/04/04 14:18:58;;;;;;;25.40;5.18;;;;;;;;;;5073689;28;20027;-82
2024/04/04 14:21:25;;;;;;;16.92;4.22;;;;;;;;;;5075072;28;20511;-83
2024/04/04 14:23:51;;;;;;;14.95;3.33;;;;;;;;;;5062676;28;20461;-82
2024/04/04 14:26:17;;;;;;;22.13;4.80;;;;;;;;;;5054890;28;20035;-83
2024/04/04 14:28:43;;;;;;;21.52;4.65;;;;;;;;;;5053020;28;20120;-83
2024/04/04 14:31:12;;;;;;;15.50;2.70;;;;;;;;;;5068405;28;20047;-83
2024/04/04 14:33:38;;;;;;;15.25;3.00;;;;;;;;;;5056383;28;20048;-83
2024/04/04 14:36:05;;;;;;;23.25;3.58;;;;;;;;;;5056916;28;20028;-82